sensor_id;sensor_type;location;lat;lon;timestamp;pressure;altitude;pressure_sealevel;temperature;humidity
46430;BME280;32131;53.454;-6.180;2022-11-15T00:01:26;98978.44;;;11.17;100.00
46430;BME280;32131;53.454;-6.180;2022-11-15T00:03:55;98987.91;;;11.19;100.00
46430;BME280;32131;53.454;-6.180;2022-11-15T00:06:23;98985.31;;;11.20;100.00
46430;BME280;32131;53.454;-6.180;2022-11-15T00:08:51;98972.38;;;11.22;100.00
46430;BME280;32131;53.454;-6.180;2022-11-15T00:11:21;98968.91;;;11.23;100.00
46430;BME280;32131;53.454;-6.180;2022-11-15T00:13:51;98974.06;;;11.24;100.00
46430;BME280;32131;53.454;-6.180;2022-11-15T00:16:19;98950.81;;;11.24;100.00
46430;BME280;32131;53.454;-6.180;2022-11-15T00:18:48;98949.97;;;11.24;100.00
46430;BME280;32131;53.454;-6.180;2022-11-15T00:21:17;98960.25;;;11.25;100.00
46430;BME280;32131;53.454;-6.180;2022-11-15T00:23:45;98951.69;;;11.25;100.00
46430;BME280;32131;53.454;-6.180;2022-11-15T00:26:14;98937.88;;;11.24;100.00
46430;BME280;32131;53.454;-6.180;2022-11-15T00:28:45;98933.59;;;11.25;100.00
46430;BME280;32131;53.454;-6.180;2022-11-15T00:31:14;98924.94;;;11.27;100.00
46430;BME280;32131;53.454;-6.180;2022-11-15T00:33:43;98931.81;;;11.28;100.00
46430;BME280;32131;53.454;-6.180;2022-11-15T00:36:12;98923.16;;;11.29;100.00
46430;BME280;32131;53.454;-6.180;2022-11-15T00:38:41;98915.41;;;11.31;100.00
46430;BME280;32131;53.454;-6.180;2022-11-15T00:41:09;98905.91;;;11.31;100.00
46430;BME280;32131;53.454;-6.180;2022-11-15T00:43:38;98890.41;;;11.33;100.00
46430;BME280;32131;53.454;-6.180;2022-11-15T00:46:11;98896.38;;;11.35;100.00
46430;BME280;32131;53.454;-6.180;2022-11-15T00:48:40;98886.91;;;11.36;100.00
46430;BME280;32131;53.454;-6.180;2022-11-15T00:51:08;98898.06;;;11.36;100.00
46430;BME280;32131;53.454;-6.180;2022-11-15T00:53:36;98879.91;;;11.41;100.00
46430;BME280;32131;53.454;-6.180;2022-11-15T00:56:05;98880.75;;;11.43;100.00
46430;BME280;32131;53.454;-6.180;2022-11-15T00:58:33;98856.59;;;11.42;100.00
46430;BME280;32131;53.454;-6.180;2022-11-15T01:01:06;98866.94;;;11.44;100.00
46430;BME280;32131;53.454;-6.180;2022-11-15T01:03:37;98867.75;;;11.46;100.00
46430;BME280;32131;53.454;-6.180;2022-11-15T01:06:07;98871.19;;;11.46;100.00
46430;BME280;32131;53.454;-6.180;2022-11-15T01:08:36;98827.22;;;11.48;100.00
46430;BME280;32131;53.454;-6.180;2022-11-15T01:11:07;98859.09;;;11.48;100.00
46430;BME280;32131;53.454;-6.180;2022-11-15T01:13:36;98855.66;;;11.50;100.00
46430;BME280;32131;53.454;-6.180;2022-11-15T01:16:07;98834.06;;;11.51;100.00
46430;BME280;32131;53.454;-6.180;2022-11-15T01:18:36;98836.63;;;11.52;100.00
46430;BME280;32131;53.454;-6.180;2022-11-15T01:21:06;98846.97;;;11.52;100.00
46430;BME280;32131;53.454;-6.180;2022-11-15T01:23:35;98826.25;;;11.54;100.00
46430;BME280;32131;53.454;-6.180;2022-11-15T01:26:07;98826.31;;;11.52;100.00
46430;BME280;32131;53.454;-6.180;2022-11-15T01:28:38;98830.56;;;11.55;100.00
46430;BME280;32131;53.454;-6.180;2022-11-15T01:31:11;98814.19;;;11.54;100.00
46430;BME280;32131;53.454;-6.180;2022-11-15T01:33:41;98813.28;;;11.57;100.00
46430;BME280;32131;53.454;-6.180;2022-11-15T01:36:12;98810.66;;;11.58;100.00
46430;BME280;32131;53.454;-6.180;2022-11-15T01:38:41;98795.16;;;11.58;100.00
46430;BME280;32131;53.454;-6.180;2022-11-15T01:41:15;98787.41;;;11.58;100.00
46430;BME280;32131;53.454;-6.180;2022-11-15T01:43:44;98795.13;;;11.61;100.00
46430;BME280;32131;53.454;-6.180;2022-11-15T01:46:23;98785.59;;;11.62;100.00
46430;BME280;32131;53.454;-6.180;2022-11-15T01:48:55;98773.56;;;11.61;100.00
46430;BME280;32131;53.454;-6.180;2022-11-15T01:51:26;98783.84;;;11.64;100.00
46430;BME280;32131;53.454;-6.180;2022-11-15T01:53:59;98776.06;;;11.66;100.00
46430;BME280;32131;53.454;-6.180;2022-11-15T01:56:31;98767.41;;;11.67;100.00
46430;BME280;32131;53.454;-6.180;2022-11-15T01:59:03;98769.09;;;11.69;100.00
46430;BME280;32131;53.454;-6.180;2022-11-15T02:01:33;98765.59;;;11.72;100.00
46430;BME280;32131;53.454;-6.180;2022-11-15T02:04:08;98768.16;;;11.73;100.00
46430;BME280;32131;53.454;-6.180;2022-11-15T02:06:38;98760.34;;;11.75;100.00
46430;BME280;32131;53.454;-6.180;2022-11-15T02:09:06;98747.38;;;11.76;100.00
46430;BME280;32131;53.454;-6.180;2022-11-15T02:11:35;98743.91;;;11.79;100.00
46430;BME280;32131;53.454;-6.180;2022-11-15T02:14:04;98736.94;;;11.83;100.00
46430;BME280;32131;53.454;-6.180;2022-11-15T02:16:40;98742.13;;;11.83;100.00
46430;BME280;32131;53.454;-6.180;2022-11-15T02:19:28;98758.41;;;11.85;100.00
46430;BME280;32131;53.454;-6.180;2022-11-15T02:22:14;98811.63;;;11.53;100.00
46430;BME280;32131;53.454;-6.180;2022-11-15T02:25:03;98836.81;;;10.91;100.00
46430;BME280;32131;53.454;-6.180;2022-11-15T02:28:15;98840.22;;;10.35;100.00
46430;BME280;32131;53.454;-6.180;2022-11-15T02:30:53;98844.13;;;10.00;100.00
46430;BME280;32131;53.454;-6.180;2022-11-15T02:33:30;98854.66;;;9.80;100.00
46430;BME280;32131;53.454;-6.180;2022-11-15T02:36:05;98847.94;;;9.65;100.00
46430;BME280;32131;53.454;-6.180;2022-11-15T02:38:40;98855.75;;;9.57;100.00
46430;BME280;32131;53.454;-6.180;2022-11-15T02:41:13;98848.97;;;9.50;100.00
46430;BME280;32131;53.454;-6.180;2022-11-15T02:43:47;98854.09;;;9.53;100.00
46430;BME280;32131;53.454;-6.180;2022-11-15T02:46:33;98864.50;;;9.44;100.00
46430;BME280;32131;53.454;-6.180;2022-11-15T02:49:20;98867.09;;;9.39;100.00
46430;BME280;32131;53.454;-6.180;2022-11-15T02:51:50;98867.19;;;9.33;100.00
46430;BME280;32131;53.454;-6.180;2022-11-15T02:54:22;98871.56;;;9.22;100.00
46430;BME280;32131;53.454;-6.180;2022-11-15T02:56:53;98881.00;;;9.20;100.00
46430;BME280;32131;53.454;-6.180;2022-11-15T02:59:42;98882.78;;;9.18;100.00
46430;BME280;32131;53.454;-6.180;2022-11-15T03:02:23;98887.09;;;9.11;100.00
46430;BME280;32131;53.454;-6.180;2022-11-15T03:04:55;98893.16;;;9.05;100.00
46430;BME280;32131;53.454;-6.180;2022-11-15T03:07:29;98903.50;;;9.02;100.00
46430;BME280;32131;53.454;-6.180;2022-11-15T03:10:06;98902.63;;;9.02;100.00
46430;BME280;32131;53.454;-6.180;2022-11-15T03:12:37;98910.34;;;9.02;100.00
46430;BME280;32131;53.454;-6.180;2022-11-15T03:15:12;98909.50;;;9.01;100.00
46430;BME280;32131;53.454;-6.180;2022-11-15T03:17:48;98907.81;;;8.97;100.00
46430;BME280;32131;53.454;-6.180;2022-11-15T03:20:17;98910.38;;;8.97;100.00
46430;BME280;32131;53.454;-6.180;2022-11-15T03:22:47;98915.53;;;8.97;100.00
46430;BME280;32131;53.454;-6.180;2022-11-15T03:25:20;98914.66;;;8.95;100.00
46430;BME280;32131;53.454;-6.180;2022-11-15T03:27:56;98910.41;;;8.95;100.00
46430;BME280;32131;53.454;-6.180;2022-11-15T03:30:25;98921.53;;;8.96;100.00
46430;BME280;32131;53.454;-6.180;2022-11-15T03:32:57;98927.53;;;8.95;100.00
46430;BME280;32131;53.454;-6.180;2022-11-15T03:35:29;98927.53;;;8.95;100.00
46430;BME280;32131;53.454;-6.180;2022-11-15T03:38:05;98932.69;;;8.95;100.00
46430;BME280;32131;53.454;-6.180;2022-11-15T03:40:38;98924.97;;;8.96;100.00
46430;BME280;32131;53.454;-6.180;2022-11-15T03:43:11;98929.25;;;8.99;100.00
46430;BME280;32131;53.454;-6.180;2022-11-15T03:45:49;98927.53;;;8.98;100.00
46430;BME280;32131;53.454;-6.180;2022-11-15T03:48:24;98925.88;;;8.94;100.00
46430;BME280;32131;53.454;-6.180;2022-11-15T03:50:54;98932.72;;;8.93;100.00
46430;BME280;32131;53.454;-6.180;2022-11-15T03:53:23;98937.00;;;8.91;100.00
46430;BME280;32131;53.454;-6.180;2022-11-15T03:55:51;98935.34;;;8.87;100.00
46430;BME280;32131;53.454;-6.180;2022-11-15T03:58:20;98936.19;;;8.86;100.00
46430;BME280;32131;53.454;-6.180;2022-11-15T04:00:48;98930.22;;;8.81;100.00
46430;BME280;32131;53.454;-6.180;2022-11-15T04:03:16;98925.97;;;8.75;100.00
46430;BME280;32131;53.454;-6.180;2022-11-15T04:05:46;98916.56;;;8.70;100.00
46430;BME280;32131;53.454;-6.180;2022-11-15T04:08:14;98906.31;;;8.65;100.00
46430;BME280;32131;53.454;-6.180;2022-11-15T04:10:43;98908.09;;;8.55;100.00
46430;BME280;32131;53.454;-6.180;2022-11-15T04:13:11;98908.09;;;8.46;100.00
46430;BME280;32131;53.454;-6.180;2022-11-15T04:15:39;98901.28;;;8.39;100.00
46430;BME280;32131;53.454;-6.180;2022-11-15T04:18:07;98901.31;;;8.28;100.00
46430;BME280;32131;53.454;-6.180;2022-11-15T04:20:35;98907.34;;;8.19;100.00
46430;BME280;32131;53.454;-6.180;2022-11-15T04:23:23;98905.66;;;8.10;100.00
46430;BME280;32131;53.454;-6.180;2022-11-15T04:26:18;98914.25;;;8.03;100.00
46430;BME280;32131;53.454;-6.180;2022-11-15T04:28:47;98915.16;;;7.99;100.00
46430;BME280;32131;53.454;-6.180;2022-11-15T04:31:29;98922.84;;;7.96;100.00
46430;BME280;32131;53.454;-6.180;2022-11-15T04:33:58;98919.44;;;7.95;100.00
46430;BME280;32131;53.454;-6.180;2022-11-15T04:36:26;98923.69;;;7.99;100.00
46430;BME280;32131;53.454;-6.180;2022-11-15T04:39:18;98925.41;;;8.03;100.00
46430;BME280;32131;53.454;-6.180;2022-11-15T04:41:48;98926.28;;;8.02;100.00
46430;BME280;32131;53.454;-6.180;2022-11-15T04:44:16;98924.53;;;8.03;100.00
46430;BME280;32131;53.454;-6.180;2022-11-15T04:46:44;98917.69;;;8.02;100.00
46430;BME280;32131;53.454;-6.180;2022-11-15T04:49:13;98927.97;;;8.03;100.00
46430;BME280;32131;53.454;-6.180;2022-11-15T04:51:41;98924.53;;;8.06;100.00
46430;BME280;32131;53.454;-6.180;2022-11-15T04:54:09;98927.13;;;8.05;100.00
46430;BME280;32131;53.454;-6.180;2022-11-15T04:56:39;98926.28;;;8.01;100.00
46430;BME280;32131;53.454;-6.180;2022-11-15T04:59:07;98922.88;;;7.94;100.00
46430;BME280;32131;53.454;-6.180;2022-11-15T05:01:36;98918.59;;;7.90;100.00
46430;BME280;32131;53.454;-6.180;2022-11-15T05:04:10;98926.31;;;7.85;100.00
46430;BME280;32131;53.454;-6.180;2022-11-15T05:06:47;98933.19;;;7.83;100.00
46430;BME280;32131;53.454;-6.180;2022-11-15T05:09:17;98930.63;;;7.79;100.00
46430;BME280;32131;53.454;-6.180;2022-11-15T05:11:46;98931.50;;;7.76;100.00
46430;BME280;32131;53.454;-6.180;2022-11-15T05:14:15;98932.34;;;7.75;100.00
46430;BME280;32131;53.454;-6.180;2022-11-15T05:16:43;98941.75;;;7.73;100.00
46430;BME280;32131;53.454;-6.180;2022-11-15T05:19:11;98943.47;;;7.74;100.00
46430;BME280;32131;53.454;-6.180;2022-11-15T05:21:40;98933.19;;;7.74;100.00
46430;BME280;32131;53.454;-6.180;2022-11-15T05:24:10;98940.06;;;7.75;100.00
46430;BME280;32131;53.454;-6.180;2022-11-15T05:26:38;98944.31;;;7.75;100.00
46430;BME280;32131;53.454;-6.180;2022-11-15T05:29:09;98935.75;;;7.74;100.00
46430;BME280;32131;53.454;-6.180;2022-11-15T05:31:40;98929.78;;;7.72;100.00
46430;BME280;32131;53.454;-6.180;2022-11-15T05:34:09;98945.19;;;7.69;100.00
46430;BME280;32131;53.454;-6.180;2022-11-15T05:36:39;98946.06;;;7.65;100.00
46430;BME280;32131;53.454;-6.180;2022-11-15T05:39:09;98952.03;;;7.61;100.00
46430;BME280;32131;53.454;-6.180;2022-11-15T05:41:39;98953.78;;;7.59;100.00
46430;BME280;32131;53.454;-6.180;2022-11-15T05:44:13;98952.91;;;7.57;100.00
46430;BME280;32131;53.454;-6.180;2022-11-15T05:46:43;98968.31;;;7.57;100.00
46430;BME280;32131;53.454;-6.180;2022-11-15T05:49:18;98979.47;;;7.54;100.00
46430;BME280;32131;53.454;-6.180;2022-11-15T05:51:48;98976.03;;;7.57;100.00
46430;BME280;32131;53.454;-6.180;2022-11-15T05:54:17;98982.88;;;7.56;100.00
46430;BME280;32131;53.454;-6.180;2022-11-15T05:56:47;98990.56;;;7.56;100.00
46430;BME280;32131;53.454;-6.180;2022-11-15T05:59:18;99000.84;;;7.56;100.00
46430;BME280;32131;53.454;-6.180;2022-11-15T06:01:46;99001.72;;;7.57;100.00
46430;BME280;32131;53.454;-6.180;2022-11-15T06:04:15;98988.00;;;7.54;100.00
46430;BME280;32131;53.454;-6.180;2022-11-15T06:06:43;98990.56;;;7.54;100.00
46430;BME280;32131;53.454;-6.180;2022-11-15T06:09:11;98985.44;;;7.53;100.00
46430;BME280;32131;53.454;-6.180;2022-11-15T06:11:39;98984.56;;;7.52;100.00
46430;BME280;32131;53.454;-6.180;2022-11-15T06:14:08;98993.16;;;7.48;100.00
46430;BME280;32131;53.454;-6.180;2022-11-15T06:16:37;99001.72;;;7.47;100.00
46430;BME280;32131;53.454;-6.180;2022-11-15T06:19:06;99005.97;;;7.45;100.00
46430;BME280;32131;53.454;-6.180;2022-11-15T06:21:35;99007.69;;;7.43;100.00
46430;BME280;32131;53.454;-6.180;2022-11-15T06:24:04;98991.44;;;7.41;100.00
46430;BME280;32131;53.454;-6.180;2022-11-15T06:26:33;98984.59;;;7.37;100.00
46430;BME280;32131;53.454;-6.180;2022-11-15T06:29:02;98988.00;;;7.36;100.00
46430;BME280;32131;53.454;-6.180;2022-11-15T06:31:31;98975.19;;;7.33;100.00
46430;BME280;32131;53.454;-6.180;2022-11-15T06:34:00;98971.75;;;7.32;100.00
46430;BME280;32131;53.454;-6.180;2022-11-15T06:36:28;98971.75;;;7.31;100.00
46430;BME280;32131;53.454;-6.180;2022-11-15T06:38:57;98970.88;;;7.29;100.00
46430;BME280;32131;53.454;-6.180;2022-11-15T06:41:25;98971.75;;;7.26;100.00
46430;BME280;32131;53.454;-6.180;2022-11-15T06:43:53;98978.59;;;7.22;100.00
46430;BME280;32131;53.454;-6.180;2022-11-15T06:46:22;98982.84;;;7.22;100.00
46430;BME280;32131;53.454;-6.180;2022-11-15T06:48:53;98979.44;;;7.18;100.00
46430;BME280;32131;53.454;-6.180;2022-11-15T06:51:23;98976.03;;;7.16;100.00
46430;BME280;32131;53.454;-6.180;2022-11-15T06:53:56;98984.56;;;7.15;100.00
46430;BME280;32131;53.454;-6.180;2022-11-15T06:56:33;98982.88;;;7.13;100.00
46430;BME280;32131;53.454;-6.180;2022-11-15T06:59:02;98994.84;;;7.11;100.00
46430;BME280;32131;53.454;-6.180;2022-11-15T07:01:30;99013.66;;;7.11;100.00
46430;BME280;32131;53.454;-6.180;2022-11-15T07:03:59;98999.94;;;7.07;100.00
46430;BME280;32131;53.454;-6.180;2022-11-15T07:06:28;99001.66;;;7.04;100.00
46430;BME280;32131;53.454;-6.180;2022-11-15T07:08:57;99000.81;;;7.03;100.00
46430;BME280;32131;53.454;-6.180;2022-11-15T07:11:25;99009.38;;;7.02;100.00
46430;BME280;32131;53.454;-6.180;2022-11-15T07:13:54;99011.94;;;7.01;100.00
46430;BME280;32131;53.454;-6.180;2022-11-15T07:16:23;99023.06;;;7.00;100.00
46430;BME280;32131;53.454;-6.180;2022-11-15T07:18:51;99029.03;;;6.99;100.00
46430;BME280;32131;53.454;-6.180;2022-11-15T07:21:19;99025.59;;;6.98;100.00
46430;BME280;32131;53.454;-6.180;2022-11-15T07:23:55;99032.41;;;6.95;100.00
46430;BME280;32131;53.454;-6.180;2022-11-15T07:26:25;99042.69;;;6.91;100.00
46430;BME280;32131;53.454;-6.180;2022-11-15T07:28:53;99034.09;;;6.86;100.00
46430;BME280;32131;53.454;-6.180;2022-11-15T07:31:22;99023.00;;;6.81;100.00
46430;BME280;32131;53.454;-6.180;2022-11-15T07:33:50;99019.53;;;6.74;100.00
46430;BME280;32131;53.454;-6.180;2022-11-15T07:36:18;99033.22;;;6.70;100.00
46430;BME280;32131;53.454;-6.180;2022-11-15T07:38:46;99035.75;;;6.66;100.00
46430;BME280;32131;53.454;-6.180;2022-11-15T07:41:16;99038.31;;;6.63;100.00
46430;BME280;32131;53.454;-6.180;2022-11-15T07:43:46;99022.03;;;6.54;100.00
46430;BME280;32131;53.454;-6.180;2022-11-15T07:46:14;99010.88;;;6.46;100.00
46430;BME280;32131;53.454;-6.180;2022-11-15T07:48:42;99013.41;;;6.40;100.00
46430;BME280;32131;53.454;-6.180;2022-11-15T07:51:12;99012.53;;;6.33;100.00
46430;BME280;32131;53.454;-6.180;2022-11-15T07:53:41;99009.06;;;6.26;100.00
46430;BME280;32131;53.454;-6.180;2022-11-15T07:56:10;99015.88;;;6.21;100.00
46430;BME280;32131;53.454;-6.180;2022-11-15T07:58:39;99024.38;;;6.16;100.00
46430;BME280;32131;53.454;-6.180;2022-11-15T08:01:11;99030.31;;;6.10;100.00
46430;BME280;32131;53.454;-6.180;2022-11-15T08:03:40;99039.69;;;6.06;100.00
46430;BME280;32131;53.454;-6.180;2022-11-15T08:06:09;99032.84;;;6.02;100.00
46430;BME280;32131;53.454;-6.180;2022-11-15T08:08:37;99025.13;;;5.99;100.00
46430;BME280;32131;53.454;-6.180;2022-11-15T08:11:06;99031.06;;;5.96;100.00
46430;BME280;32131;53.454;-6.180;2022-11-15T08:13:34;99029.34;;;5.94;100.00
46430;BME280;32131;53.454;-6.180;2022-11-15T08:16:04;99031.88;;;5.89;100.00
46430;BME280;32131;53.454;-6.180;2022-11-15T08:18:35;99036.97;;;5.86;100.00
46430;BME280;32131;53.454;-6.180;2022-11-15T08:21:09;99041.22;;;5.82;100.00
46430;BME280;32131;53.454;-6.180;2022-11-15T08:27:16;99035.22;;;5.79;100.00
46430;BME280;32131;53.454;-6.180;2022-11-15T08:29:54;99023.25;;;5.75;100.00
46430;BME280;32131;53.454;-6.180;2022-11-15T08:32:34;99024.09;;;5.74;100.00
46430;BME280;32131;53.454;-6.180;2022-11-15T08:35:18;99026.66;;;5.74;100.00
46430;BME280;32131;53.454;-6.180;2022-11-15T08:37:55;99045.44;;;5.76;100.00
46430;BME280;32131;53.454;-6.180;2022-11-15T08:40:26;99042.88;;;5.74;100.00
46430;BME280;32131;53.454;-6.180;2022-11-15T08:42:58;99050.53;;;5.73;100.00
46430;BME280;32131;53.454;-6.180;2022-11-15T08:45:37;99055.66;;;5.76;100.00
46430;BME280;32131;53.454;-6.180;2022-11-15T08:48:16;99058.31;;;5.82;100.00
46430;BME280;32131;53.454;-6.180;2022-11-15T08:50:48;99057.47;;;5.86;100.00
46430;BME280;32131;53.454;-6.180;2022-11-15T08:53:16;99052.38;;;5.91;100.00
46430;BME280;32131;53.454;-6.180;2022-11-15T08:55:46;99058.38;;;5.94;100.00
46430;BME280;32131;53.454;-6.180;2022-11-15T08:58:14;99065.22;;;5.97;100.00
46430;BME280;32131;53.454;-6.180;2022-11-15T09:00:42;99069.56;;;6.03;100.00
46430;BME280;32131;53.454;-6.180;2022-11-15T09:03:11;99058.47;;;6.05;100.00
46430;BME280;32131;53.454;-6.180;2022-11-15T09:05:41;99056.78;;;6.09;100.00
46430;BME280;32131;53.454;-6.180;2022-11-15T09:08:10;99053.41;;;6.13;100.00
46430;BME280;32131;53.454;-6.180;2022-11-15T09:11:02;99048.31;;;6.18;100.00
46430;BME280;32131;53.454;-6.180;2022-11-15T09:13:31;99044.91;;;6.20;100.00
46430;BME280;32131;53.454;-6.180;2022-11-15T09:16:00;99043.22;;;6.22;100.00
46430;BME280;32131;53.454;-6.180;2022-11-15T09:18:29;99040.66;;;6.25;100.00
46430;BME280;32131;53.454;-6.180;2022-11-15T09:21:00;99037.25;;;6.26;100.00
46430;BME280;32131;53.454;-6.180;2022-11-15T09:23:30;99027.84;;;6.21;100.00
46430;BME280;32131;53.454;-6.180;2022-11-15T09:26:02;99025.25;;;6.16;100.00
46430;BME280;32131;53.454;-6.180;2022-11-15T09:28:31;99023.50;;;6.12;100.00
46430;BME280;32131;53.454;-6.180;2022-11-15T09:31:04;99026.06;;;6.10;100.00
46430;BME280;32131;53.454;-6.180;2022-11-15T09:33:34;99026.06;;;6.13;100.00
46430;BME280;32131;53.454;-6.180;2022-11-15T09:36:07;99024.41;;;6.22;100.00
46430;BME280;32131;53.454;-6.180;2022-11-15T09:38:36;99024.53;;;6.39;100.00
46430;BME280;32131;53.454;-6.180;2022-11-15T09:41:22;99022.06;;;6.57;100.00
46430;BME280;32131;53.454;-6.180;2022-11-15T09:44:01;99020.41;;;6.75;100.00
46430;BME280;32131;53.454;-6.180;2022-11-15T09:46:44;99016.16;;;6.91;100.00
46430;BME280;32131;53.454;-6.180;2022-11-15T09:49:17;99017.06;;;7.07;100.00
46430;BME280;32131;53.454;-6.180;2022-11-15T09:51:50;99019.66;;;7.19;100.00
46430;BME280;32131;53.454;-6.180;2022-11-15T09:54:27;99022.25;;;7.32;100.00
46430;BME280;32131;53.454;-6.180;2022-11-15T09:57:21;99023.97;;;7.39;100.00
46430;BME280;32131;53.454;-6.180;2022-11-15T09:59:58;99032.53;;;7.47;100.00
46430;BME280;32131;53.454;-6.180;2022-11-15T10:02:59;99027.38;;;7.64;100.00
46430;BME280;32131;53.454;-6.180;2022-11-15T10:05:32;99017.09;;;7.87;100.00
46430;BME280;32131;53.454;-6.180;2022-11-15T10:11:07;99010.16;;;8.47;100.00
46430;BME280;32131;53.454;-6.180;2022-11-15T10:14:00;99005.81;;;8.64;100.00
46430;BME280;32131;53.454;-6.180;2022-11-15T10:19:48;98998.88;;;8.74;99.15
46430;BME280;32131;53.454;-6.180;2022-11-15T10:22:28;99002.31;;;8.75;99.15
46430;BME280;32131;53.454;-6.180;2022-11-15T10:25:10;99012.56;;;8.79;99.26
46430;BME280;32131;53.454;-6.180;2022-11-15T10:27:41;99005.72;;;8.80;98.85
46430;BME280;32131;53.454;-6.180;2022-11-15T10:30:12;99009.13;;;8.82;98.03
46430;BME280;32131;53.454;-6.180;2022-11-15T10:32:43;99004.81;;;8.89;97.85
46430;BME280;32131;53.454;-6.180;2022-11-15T10:35:20;98988.50;;;8.91;96.52
46430;BME280;32131;53.454;-6.180;2022-11-15T10:37:49;98986.78;;;8.86;95.41
46430;BME280;32131;53.454;-6.180;2022-11-15T10:40:23;98983.38;;;8.82;95.75
46430;BME280;32131;53.454;-6.180;2022-11-15T10:43:14;98975.72;;;8.74;95.16
46430;BME280;32131;53.454;-6.180;2022-11-15T10:45:43;98986.91;;;8.64;94.87
46430;BME280;32131;53.454;-6.180;2022-11-15T10:48:24;98978.41;;;8.49;95.17
46430;BME280;32131;53.454;-6.180;2022-11-15T10:50:53;98986.97;;;8.44;95.84
46430;BME280;32131;53.454;-6.180;2022-11-15T10:53:32;98975.84;;;8.49;94.99
46430;BME280;32131;53.454;-6.180;2022-11-15T10:56:05;98975.84;;;8.49;95.39
46430;BME280;32131;53.454;-6.180;2022-11-15T10:58:39;98981.78;;;8.56;94.79
46430;BME280;32131;53.454;-6.180;2022-11-15T11:01:11;98986.09;;;8.59;93.88
46430;BME280;32131;53.454;-6.180;2022-11-15T11:03:40;98982.63;;;8.66;92.48
46430;BME280;32131;53.454;-6.180;2022-11-15T11:06:10;98974.00;;;8.76;92.70
46430;BME280;32131;53.454;-6.180;2022-11-15T11:08:39;98975.69;;;8.80;91.43
46430;BME280;32131;53.454;-6.180;2022-11-15T11:11:09;98977.41;;;8.85;91.53
46430;BME280;32131;53.454;-6.180;2022-11-15T11:13:38;98968.81;;;8.83;89.67
46430;BME280;32131;53.454;-6.180;2022-11-15T11:16:27;98974.81;;;8.81;89.38
46430;BME280;32131;53.454;-6.180;2022-11-15T11:19:13;98967.13;;;8.78;89.38
46430;BME280;32131;53.454;-6.180;2022-11-15T11:21:49;98973.13;;;8.76;88.64
46430;BME280;32131;53.454;-6.180;2022-11-15T11:24:24;98969.69;;;8.77;88.93
46430;BME280;32131;53.454;-6.180;2022-11-15T11:27:08;98965.41;;;8.79;87.76
46430;BME280;32131;53.454;-6.180;2022-11-15T11:29:52;98961.97;;;8.80;85.03
46430;BME280;32131;53.454;-6.180;2022-11-15T11:35:30;98949.94;;;8.84;85.30
46430;BME280;32131;53.454;-6.180;2022-11-15T11:38:11;98937.91;;;8.86;84.12
46430;BME280;32131;53.454;-6.180;2022-11-15T11:40:51;98934.47;;;8.90;84.20
46430;BME280;32131;53.454;-6.180;2022-11-15T11:43:36;98937.00;;;8.91;83.37
46430;BME280;32131;53.454;-6.180;2022-11-15T11:46:18;98931.84;;;8.94;83.27
46430;BME280;32131;53.454;-6.180;2022-11-15T11:48:56;98930.13;;;8.96;82.31
46430;BME280;32131;53.454;-6.180;2022-11-15T11:51:33;98920.66;;;8.97;82.78
46430;BME280;32131;53.454;-6.180;2022-11-15T11:54:05;98912.94;;;9.00;81.44
46430;BME280;32131;53.454;-6.180;2022-11-15T11:56:36;98912.09;;;9.01;80.72
46430;BME280;32131;53.454;-6.180;2022-11-15T11:59:12;98908.59;;;9.05;80.46
46430;BME280;32131;53.454;-6.180;2022-11-15T12:01:45;98895.72;;;9.08;79.96
46430;BME280;32131;53.454;-6.180;2022-11-15T12:04:18;98897.38;;;9.12;79.80
46430;BME280;32131;53.454;-6.180;2022-11-15T12:06:50;98895.63;;;9.16;79.11
46430;BME280;32131;53.454;-6.180;2022-11-15T12:09:26;98895.59;;;9.22;79.38
46430;BME280;32131;53.454;-6.180;2022-11-15T12:12:01;98889.53;;;9.28;78.93
46430;BME280;32131;53.454;-6.180;2022-11-15T12:14:38;98892.94;;;9.33;78.39
46430;BME280;32131;53.454;-6.180;2022-11-15T12:17:10;98892.88;;;9.39;78.63
46430;BME280;32131;53.454;-6.180;2022-11-15T12:19:38;98901.38;;;9.44;78.53
46430;BME280;32131;53.454;-6.180;2022-11-15T12:22:12;98902.19;;;9.53;78.31
46430;BME280;32131;53.454;-6.180;2022-11-15T12:24:44;98908.94;;;9.63;77.44
46430;BME280;32131;53.454;-6.180;2022-11-15T12:27:17;98889.13;;;9.71;76.48
46430;BME280;32131;53.454;-6.180;2022-11-15T12:29:56;98899.31;;;9.81;76.74
46430;BME280;32131;53.454;-6.180;2022-11-15T12:32:29;98903.53;;;9.89;75.74
46430;BME280;32131;53.454;-6.180;2022-11-15T12:35:00;98898.28;;;9.97;73.70
46430;BME280;32131;53.454;-6.180;2022-11-15T12:37:54;98888.75;;;10.04;71.19
46430;BME280;32131;53.454;-6.180;2022-11-15T12:40:33;98885.19;;;10.13;72.06
46430;BME280;32131;53.454;-6.180;2022-11-15T12:46:11;98864.34;;;10.31;70.63
46430;BME280;32131;53.454;-6.180;2022-11-15T12:48:49;98864.22;;;10.44;71.55
46430;BME280;32131;53.454;-6.180;2022-11-15T12:51:21;98858.88;;;10.56;71.59
46430;BME280;32131;53.454;-6.180;2022-11-15T12:53:49;98866.47;;;10.65;71.01
46430;BME280;32131;53.454;-6.180;2022-11-15T12:56:21;98855.19;;;10.73;71.20
46430;BME280;32131;53.454;-6.180;2022-11-15T12:58:54;98856.78;;;10.80;70.97
46430;BME280;32131;53.454;-6.180;2022-11-15T13:01:57;98866.06;;;10.92;70.02
46430;BME280;32131;53.454;-6.180;2022-11-15T13:04:28;98871.09;;;11.01;70.59
46430;BME280;32131;53.454;-6.180;2022-11-15T13:07:00;98864.06;;;11.09;70.72
46430;BME280;32131;53.454;-6.180;2022-11-15T13:12:51;98864.72;;;11.22;68.94
46430;BME280;32131;53.454;-6.180;2022-11-15T13:15:46;98861.16;;;11.29;68.67
46430;BME280;32131;53.454;-6.180;2022-11-15T13:18:37;98848.97;;;11.36;67.63
46430;BME280;32131;53.454;-6.180;2022-11-15T13:21:20;98843.72;;;11.41;66.75
46430;BME280;32131;53.454;-6.180;2022-11-15T13:24:10;98833.22;;;11.50;67.10
46430;BME280;32131;53.454;-6.180;2022-11-15T13:26:40;98831.34;;;11.58;67.46
46430;BME280;32131;53.454;-6.180;2022-11-15T13:29:18;98825.25;;;11.61;66.34
46430;BME280;32131;53.454;-6.180;2022-11-15T13:31:47;98833.75;;;11.68;66.66
46430;BME280;32131;53.454;-6.180;2022-11-15T13:34:24;98833.72;;;11.71;65.66
46430;BME280;32131;53.454;-6.180;2022-11-15T13:37:29;98829.28;;;11.76;65.50
46430;BME280;32131;53.454;-6.180;2022-11-15T13:40:18;98828.22;;;11.85;65.65